Pegasus — DK7794 — position and weather

sailwx.info

Track history (hours):
 
Tides and Currents Weather Stations Pressure Air Temp Water Temp Dewpoint Dewpoint Depression Visibility Wind Speed Wind Dir Waves Ship Positions

Pegasus

Last reported at 2017-Oct-01 13:22 UTC. Time now 2017-Oct-18 18:43 UTC.
Position N 37°03' W 008°16'.
Warning: this ship's position is 17 days out of date.

Length 14 m.

Type: Sailing vessel. MMSI: 211654180.

Date/timePositionNaut miles runAvg speedWind from/ knotsBaromVisibWave heightAir tempDewpointWater temp
2017-Oct-01 13:22N 37°03' W 008°16'1 2.6
2017-Oct-01 12:58N 37°02' W 008°17'2 4.0
2017-Oct-01 12:30N 37°02' W 008°19'2 4.0
2017-Oct-01 11:55N 37°03' W 008°22'2 3.3
2017-Oct-01 11:27N 37°03' W 008°24'2 3.6
2017-Oct-01 10:55N 37°04' W 008°27'2 3.8
2017-Oct-01 10:28N 37°04' W 008°29'2 4.4
2017-Oct-01 10:00N 37°05' W 008°31'2 3.2
2017-Oct-01 09:30N 37°06' W 008°32'1 0.0
2017-Sep-29 16:34N 37°07' W 008°31'0 0.0
2017-Sep-29 16:16N 37°07' W 008°31'0 0.0
2017-Sep-29 15:03N 37°07' W 008°32'0 0.8
2017-Sep-29 15:00N 37°07' W 008°31'0 0.9
2017-Sep-29 14:30N 37°07' W 008°31'3 5.1
2017-Sep-29 13:55N 37°04' W 008°31'2 5.0
2017-Sep-29 13:30N 37°03' W 008°34'  
2017-Sep-25 23:19N 37°47' W 009°11'1 4.6
2017-Sep-25 23:00N 37°49' W 009°11'3 4.4
2017-Sep-25 22:25N 37°51' W 009°12'2 4.9
2017-Sep-25 22:00N 37°53' W 009°12'3 5.1
2017-Sep-25 21:30N 37°56' W 009°13'2 4.9
2017-Sep-25 21:00N 37°58' W 009°14'3 5.2
2017-Sep-25 20:30N 38°01' W 009°15'3 5.2
2017-Sep-25 20:00N 38°03' W 009°15'3 5.6
2017-Sep-25 19:30N 38°06' W 009°16'3 5.9
2017-Sep-25 19:00N 38°09' W 009°17'3 6.0
2017-Sep-25 18:30N 38°12' W 009°17'3 5.7
2017-Sep-25 18:00N 38°14' W 009°19'3 5.7
2017-Sep-25 17:24N 38°18' W 009°19'9 5.8
2017-Sep-25 15:52N 38°27' W 009°21'3 5.6
2017-Sep-25 15:21N 38°29' W 009°22'3 5.8
2017-Sep-25 14:55N 38°32' W 009°23'3 5.8
2017-Sep-25 14:27N 38°35' W 009°23'3 5.5
2017-Sep-25 13:59N 38°37' W 009°23'2 4.8
2017-Sep-25 13:30N 38°39' W 009°23'2 1.1
2017-Sep-25 11:10N 38°41' W 009°25'0 0.0
2017-Sep-25 10:52N 38°41' W 009°25'0 0.0
2017-Sep-25 10:22N 38°41' W 009°25'0 0.0
2017-Sep-25 09:10N 38°41' W 009°25'0 0.0
2017-Sep-25 08:55N 38°41' W 009°25'0 0.0
2017-Sep-25 08:13N 38°41' W 009°25'0 0.0
2017-Sep-25 07:07N 38°41' W 009°25'0 0.0
2017-Sep-25 05:43N 38°41' W 009°25'0 0.0
2017-Sep-25 05:28N 38°41' W 009°25'0 0.0
2017-Sep-25 04:46N 38°41' W 009°25'0 0.0
2017-Sep-25 04:19N 38°41' W 009°25'0 0.0
2017-Sep-25 03:19N 38°41' W 009°25'0 0.0
2017-Sep-25 00:58N 38°41' W 009°25'0 0.0
2017-Sep-25 00:16N 38°41' W 009°25'0 0.0
2017-Sep-24 23:52N 38°41' W 009°25'0 0.0
2017-Sep-24 23:04N 38°41' W 009°25'0 0.0
2017-Sep-24 22:49N 38°41' W 009°25'0 0.0
2017-Sep-24 22:13N 38°41' W 009°25'0 0.0
2017-Sep-24 20:01N 38°41' W 009°25'0 0.0
2017-Sep-24 19:34N 38°41' W 009°25'0 0.0
2017-Sep-24 19:19N 38°41' W 009°25'0 0.0
2017-Sep-24 18:58N 38°41' W 009°25'0 0.0
2017-Sep-24 18:16N 38°41' W 009°25'0 0.0
2017-Sep-24 17:49N 38°41' W 009°25'0 0.0
2017-Sep-24 17:22N 38°41' W 009°25'0 0.0
2017-Sep-24 16:58N 38°41' W 009°25'0 0.0
2017-Sep-24 16:01N 38°41' W 009°25'0 0.0
2017-Sep-24 15:52N 38°41' W 009°25'0 0.0
2017-Sep-24 14:28N 38°41' W 009°25'0 0.0
2017-Sep-24 13:52N 38°41' W 009°25'0 0.0
2017-Sep-24 13:28N 38°41' W 009°25'0 0.0
2017-Sep-24 12:43N 38°41' W 009°25'0 0.0
2017-Sep-24 12:28N 38°41' W 009°25'0 0.0
2017-Sep-24 11:31N 38°41' W 009°25'0 0.0
2017-Sep-24 10:43N 38°41' W 009°25'0 0.0
2017-Sep-24 10:28N 38°41' W 009°25'0 0.0
2017-Sep-24 09:58N 38°41' W 009°25'0 0.0
2017-Sep-24 09:22N 38°41' W 009°25'0 0.0
2017-Sep-24 08:58N 38°41' W 009°25'0 0.0
2017-Sep-24 08:04N 38°41' W 009°25'0 0.0
2017-Sep-24 07:58N 38°41' W 009°25'0 0.0
2017-Sep-24 07:19N 38°41' W 009°25'0 0.0
2017-Sep-24 06:43N 38°41' W 009°25'0 0.0
2017-Sep-24 06:16N 38°41' W 009°25'0 0.0
2017-Sep-24 05:07N 38°41' W 009°25'0 0.0
2017-Sep-24 04:58N 38°41' W 009°25'0 0.0
2017-Sep-24 03:31N 38°41' W 009°25'0 0.0
2017-Sep-24 03:28N 38°41' W 009°25'0 0.0
2017-Sep-24 02:58N 38°41' W 009°25'0 0.0
2017-Sep-24 02:22N 38°41' W 009°25'0 0.0
2017-Sep-24 01:58N 38°41' W 009°25'0 0.0
2017-Sep-24 01:25N 38°41' W 009°25'0 0.0
2017-Sep-24 00:55N 38°41' W 009°25'0 0.0
2017-Sep-24 00:04N 38°41' W 009°25'0 0.0
2017-Sep-23 23:49N 38°41' W 009°25'0 0.0
2017-Sep-23 23:07N 38°41' W 009°25'0 0.0
2017-Sep-23 22:37N 38°41' W 009°25'0 0.0
2017-Sep-23 22:07N 38°41' W 009°25'0 0.0
2017-Sep-23 21:58N 38°41' W 009°25'0 0.0
2017-Sep-23 21:25N 38°41' W 009°25'  
Track history (hours):
 
Tides and Currents Weather Stations Pressure Air Temp Water Temp Dewpoint Dewpoint Depression Visibility Wind Speed Wind Dir Waves Ship Positions

Pegasus

Last reported at 2017-Oct-01 13:22 UTC. Time now 2017-Oct-18 18:43 UTC.
Position N 37°03' W 008°16'.
Warning: this ship's position is 17 days out of date.

Length 14 m.

Type: Sailing vessel. MMSI: 211654180.

Date/timePositionNaut miles runAvg speedWind from/ knotsBaromVisibWave heightAir tempDewpointWater temp
2017-Oct-01 13:22N 37°03' W 008°16'1 2.6
2017-Oct-01 12:58N 37°02' W 008°17'2 4.0
2017-Oct-01 12:30N 37°02' W 008°19'2 4.0
2017-Oct-01 11:55N 37°03' W 008°22'2 3.3
2017-Oct-01 11:27N 37°03' W 008°24'2 3.6
2017-Oct-01 10:55N 37°04' W 008°27'2 3.8
2017-Oct-01 10:28N 37°04' W 008°29'2 4.4
2017-Oct-01 10:00N 37°05' W 008°31'2 3.2
2017-Oct-01 09:30N 37°06' W 008°32'1 0.0
2017-Sep-29 16:34N 37°07' W 008°31'0 0.0
2017-Sep-29 16:16N 37°07' W 008°31'0 0.0
2017-Sep-29 15:03N 37°07' W 008°32'0 0.8
2017-Sep-29 15:00N 37°07' W 008°31'0 0.9
2017-Sep-29 14:30N 37°07' W 008°31'3 5.1
2017-Sep-29 13:55N 37°04' W 008°31'2 5.0
2017-Sep-29 13:30N 37°03' W 008°34'  
2017-Sep-25 23:19N 37°47' W 009°11'1 4.6
2017-Sep-25 23:00N 37°49' W 009°11'3 4.4
2017-Sep-25 22:25N 37°51' W 009°12'2 4.9
2017-Sep-25 22:00N 37°53' W 009°12'3 5.1
2017-Sep-25 21:30N 37°56' W 009°13'2 4.9
2017-Sep-25 21:00N 37°58' W 009°14'3 5.2
2017-Sep-25 20:30N 38°01' W 009°15'3 5.2
2017-Sep-25 20:00N 38°03' W 009°15'3 5.6
2017-Sep-25 19:30N 38°06' W 009°16'3 5.9
2017-Sep-25 19:00N 38°09' W 009°17'3 6.0
2017-Sep-25 18:30N 38°12' W 009°17'3 5.7
2017-Sep-25 18:00N 38°14' W 009°19'3 5.7
2017-Sep-25 17:24N 38°18' W 009°19'9 5.8
2017-Sep-25 15:52N 38°27' W 009°21'3 5.6
2017-Sep-25 15:21N 38°29' W 009°22'3 5.8
2017-Sep-25 14:55N 38°32' W 009°23'3 5.8
2017-Sep-25 14:27N 38°35' W 009°23'3 5.5
2017-Sep-25 13:59N 38°37' W 009°23'2 4.8
2017-Sep-25 13:30N 38°39' W 009°23'2 1.1
2017-Sep-25 11:10N 38°41' W 009°25'0 0.0
2017-Sep-25 10:52N 38°41' W 009°25'0 0.0
2017-Sep-25 10:22N 38°41' W 009°25'0 0.0
2017-Sep-25 09:10N 38°41' W 009°25'0 0.0
2017-Sep-25 08:55N 38°41' W 009°25'0 0.0
2017-Sep-25 08:13N 38°41' W 009°25'0 0.0
2017-Sep-25 07:07N 38°41' W 009°25'0 0.0
2017-Sep-25 05:43N 38°41' W 009°25'0 0.0
2017-Sep-25 05:28N 38°41' W 009°25'0 0.0
2017-Sep-25 04:46N 38°41' W 009°25'0 0.0
2017-Sep-25 04:19N 38°41' W 009°25'0 0.0
2017-Sep-25 03:19N 38°41' W 009°25'0 0.0
2017-Sep-25 00:58N 38°41' W 009°25'0 0.0
2017-Sep-25 00:16N 38°41' W 009°25'0 0.0
2017-Sep-24 23:52N 38°41' W 009°25'0 0.0
2017-Sep-24 23:04N 38°41' W 009°25'0 0.0
2017-Sep-24 22:49N 38°41' W 009°25'0 0.0
2017-Sep-24 22:13N 38°41' W 009°25'0 0.0
2017-Sep-24 20:01N 38°41' W 009°25'0 0.0
2017-Sep-24 19:34N 38°41' W 009°25'0 0.0
2017-Sep-24 19:19N 38°41' W 009°25'0 0.0
2017-Sep-24 18:58N 38°41' W 009°25'0 0.0
2017-Sep-24 18:16N 38°41' W 009°25'0 0.0
2017-Sep-24 17:49N 38°41' W 009°25'0 0.0
2017-Sep-24 17:22N 38°41' W 009°25'0 0.0
2017-Sep-24 16:58N 38°41' W 009°25'0 0.0
2017-Sep-24 16:01N 38°41' W 009°25'0 0.0
2017-Sep-24 15:52N 38°41' W 009°25'0 0.0
2017-Sep-24 14:28N 38°41' W 009°25'0 0.0
2017-Sep-24 13:52N 38°41' W 009°25'0 0.0
2017-Sep-24 13:28N 38°41' W 009°25'0 0.0
2017-Sep-24 12:43N 38°41' W 009°25'0 0.0
2017-Sep-24 12:28N 38°41' W 009°25'0 0.0
2017-Sep-24 11:31N 38°41' W 009°25'0 0.0
2017-Sep-24 10:43N 38°41' W 009°25'0 0.0
2017-Sep-24 10:28N 38°41' W 009°25'0 0.0
2017-Sep-24 09:58N 38°41' W 009°25'0 0.0
2017-Sep-24 09:22N 38°41' W 009°25'0 0.0
2017-Sep-24 08:58N 38°41' W 009°25'0 0.0
2017-Sep-24 08:04N 38°41' W 009°25'0 0.0
2017-Sep-24 07:58N 38°41' W 009°25'0 0.0
2017-Sep-24 07:19N 38°41' W 009°25'0 0.0
2017-Sep-24 06:43N 38°41' W 009°25'0 0.0
2017-Sep-24 06:16N 38°41' W 009°25'0 0.0
2017-Sep-24 05:07N 38°41' W 009°25'0 0.0
2017-Sep-24 04:58N 38°41' W 009°25'0 0.0
2017-Sep-24 03:31N 38°41' W 009°25'0 0.0
2017-Sep-24 03:28N 38°41' W 009°25'0 0.0
2017-Sep-24 02:58N 38°41' W 009°25'0 0.0
2017-Sep-24 02:22N 38°41' W 009°25'0 0.0
2017-Sep-24 01:58N 38°41' W 009°25'0 0.0
2017-Sep-24 01:25N 38°41' W 009°25'0 0.0
2017-Sep-24 00:55N 38°41' W 009°25'0 0.0
2017-Sep-24 00:04N 38°41' W 009°25'0 0.0
2017-Sep-23 23:49N 38°41' W 009°25'0 0.0
2017-Sep-23 23:07N 38°41' W 009°25'0 0.0
2017-Sep-23 22:37N 38°41' W 009°25'0 0.0
2017-Sep-23 22:07N 38°41' W 009°25'0 0.0
2017-Sep-23 21:58N 38°41' W 009°25'0 0.0
2017-Sep-23 21:25N 38°41' W 009°25'  

Dump ship's entire track history